This is the latest recevied weather packets stored in our database for station/object IZ8QAD-12. If no packets are shown the sender has not sent any weather packets the latest 10 day(s).
| Time | Temp. | Humidity | Pressure | Rain* | Wind** | Luminosity | Snow |
|---|---|---|---|---|---|---|---|
| 1777921950 | 14.44° C | 41% | 970.9 hPa | - | - | - | - |
| 1777919249 | 15.56° C | 38% | 970.7 hPa | - | - | - | - |
| 1777916549 | 18.33° C | 34% | 970.4 hPa | - | - | - | - |
| 1777913849 | 20° C | 32% | 970.3 hPa | - | - | - | - |
| 1777911149 | 22.78° C | 28% | 970.1 hPa | - | - | - | - |
| 1777908449 | 25.56° C | 24% | 970.2 hPa | - | - | - | - |
| 1777905749 | 27.78° C | 22% | 970.2 hPa | - | - | - | - |
| 1777903052 | 29.44° C | 20% | 970.5 hPa | - | - | - | - |
| 1777900351 | 43.33° C | 10% | 970.8 hPa | - | - | - | - |
| 1777897651 | 54.44° C | 5% | 971.3 hPa | - | - | - | - |
| 1777894951 | 52.78° C | 6% | 971.5 hPa | - | - | - | - |
| 1777892251 | 51.67° C | 7% | 971.9 hPa | - | - | - | - |
| 1777889551 | 41.67° C | 12% | 972.7 hPa | - | - | - | - |
| 1777886850 | 36.67° C | 16% | 972.8 hPa | - | - | - | - |
| 1777881447 | 35.56° C | 21% | 972.6 hPa | - | - | - | - |
| 1777878747 | 30° C | 31% | 972.7 hPa | - | - | - | - |
| 1777876047 | 19.44° C | 45% | 972.5 hPa | - | - | - | - |
| 1777873347 | 11.67° C | 59% | 972.4 hPa | - | - | - | - |
| 1777870655 | 7.22° C | 64% | 971.9 hPa | - | - | - | - |
| 1777867947 | 6.67° C | 64% | 971.8 hPa | - | - | - | - |
| 1777865246 | 7.22° C | 63% | 971.7 hPa | - | - | - | - |
| 1777862546 | 6.67° C | 62% | 971.8 hPa | - | - | - | - |
| 1777859846 | 7.22° C | 61% | 972.1 hPa | - | - | - | - |
| 1777857146 | 7.78° C | 61% | 971.9 hPa | - | - | - | - |
| 1777854446 | 8.33° C | 61% | 971.7 hPa | - | - | - | - |
* Rain since midnight (hover to see other rain measurements)
** Current wind speed in m/s (hover to see current wind gust speed)